sensor_id;sensor_type;location;lat;lon;timestamp;P1;durP1;ratioP1;P2;durP2;ratioP2
29848;SDS011;16728;50.832;5.590;2023-01-10T00:01:23;10.45;;;2.95;;
29848;SDS011;16728;50.832;5.590;2023-01-10T00:04:28;8.32;;;3.28;;
29848;SDS011;16728;50.832;5.590;2023-01-10T00:07:31;9.93;;;3.25;;
29848;SDS011;16728;50.832;5.590;2023-01-10T00:10:33;8.43;;;2.83;;
29848;SDS011;16728;50.832;5.590;2023-01-10T00:13:36;11.98;;;2.95;;
29848;SDS011;16728;50.832;5.590;2023-01-10T00:16:38;9.00;;;3.22;;
29848;SDS011;16728;50.832;5.590;2023-01-10T00:19:40;9.07;;;2.67;;
29848;SDS011;16728;50.832;5.590;2023-01-10T00:22:42;13.65;;;2.90;;
29848;SDS011;16728;50.832;5.590;2023-01-10T00:25:45;12.05;;;2.55;;
29848;SDS011;16728;50.832;5.590;2023-01-10T00:28:47;10.77;;;2.78;;
29848;SDS011;16728;50.832;5.590;2023-01-10T00:31:49;11.63;;;2.88;;
29848;SDS011;16728;50.832;5.590;2023-01-10T00:34:51;9.25;;;2.30;;
29848;SDS011;16728;50.832;5.590;2023-01-10T00:37:53;8.18;;;2.47;;
29848;SDS011;16728;50.832;5.590;2023-01-10T00:41:02;13.20;;;3.78;;
29848;SDS011;16728;50.832;5.590;2023-01-10T00:44:24;9.52;;;3.40;;
29848;SDS011;16728;50.832;5.590;2023-01-10T00:47:26;14.60;;;3.25;;
29848;SDS011;16728;50.832;5.590;2023-01-10T00:50:28;8.82;;;2.97;;
29848;SDS011;16728;50.832;5.590;2023-01-10T00:53:30;13.55;;;3.05;;
29848;SDS011;16728;50.832;5.590;2023-01-10T00:56:32;10.85;;;2.65;;
29848;SDS011;16728;50.832;5.590;2023-01-10T00:59:34;8.93;;;2.53;;
29848;SDS011;16728;50.832;5.590;2023-01-10T01:02:36;9.50;;;2.90;;
29848;SDS011;16728;50.832;5.590;2023-01-10T01:05:39;6.00;;;2.55;;
29848;SDS011;16728;50.832;5.590;2023-01-10T01:08:42;11.77;;;2.50;;
29848;SDS011;16728;50.832;5.590;2023-01-10T01:11:44;12.40;;;2.85;;
29848;SDS011;16728;50.832;5.590;2023-01-10T01:14:46;14.07;;;3.10;;
29848;SDS011;16728;50.832;5.590;2023-01-10T01:17:48;11.13;;;2.63;;
29848;SDS011;16728;50.832;5.590;2023-01-10T01:20:53;10.07;;;2.80;;
29848;SDS011;16728;50.832;5.590;2023-01-10T01:23:57;8.68;;;2.50;;
29848;SDS011;16728;50.832;5.590;2023-01-10T01:26:59;14.75;;;2.70;;
29848;SDS011;16728;50.832;5.590;2023-01-10T01:30:01;14.93;;;3.50;;
29848;SDS011;16728;50.832;5.590;2023-01-10T01:33:03;11.40;;;2.75;;
29848;SDS011;16728;50.832;5.590;2023-01-10T01:36:09;7.68;;;3.08;;
29848;SDS011;16728;50.832;5.590;2023-01-10T01:39:12;15.02;;;2.80;;
29848;SDS011;16728;50.832;5.590;2023-01-10T01:42:32;9.18;;;2.90;;
29848;SDS011;16728;50.832;5.590;2023-01-10T01:45:36;11.82;;;3.03;;
29848;SDS011;16728;50.832;5.590;2023-01-10T01:48:40;15.98;;;3.53;;
29848;SDS011;16728;50.832;5.590;2023-01-10T01:51:43;9.98;;;2.85;;
29848;SDS011;16728;50.832;5.590;2023-01-10T01:54:48;14.48;;;3.35;;
29848;SDS011;16728;50.832;5.590;2023-01-10T01:57:50;9.38;;;3.13;;
29848;SDS011;16728;50.832;5.590;2023-01-10T02:00:55;11.07;;;3.25;;
29848;SDS011;16728;50.832;5.590;2023-01-10T02:04:02;9.85;;;2.95;;
29848;SDS011;16728;50.832;5.590;2023-01-10T02:07:13;15.18;;;3.13;;
29848;SDS011;16728;50.832;5.590;2023-01-10T02:13:23;10.23;;;2.90;;
29848;SDS011;16728;50.832;5.590;2023-01-10T02:36:32;10.57;;;2.63;;
29848;SDS011;16728;50.832;5.590;2023-01-10T02:46:20;9.85;;;2.60;;
29848;SDS011;16728;50.832;5.590;2023-01-10T02:49:27;13.50;;;3.10;;
29848;SDS011;16728;50.832;5.590;2023-01-10T02:52:30;13.90;;;3.13;;
29848;SDS011;16728;50.832;5.590;2023-01-10T03:09:30;12.88;;;2.90;;
29848;SDS011;16728;50.832;5.590;2023-01-10T03:12:47;12.10;;;2.53;;
29848;SDS011;16728;50.832;5.590;2023-01-10T03:15:57;10.18;;;2.75;;
29848;SDS011;16728;50.832;5.590;2023-01-10T03:19:03;16.52;;;2.80;;
29848;SDS011;16728;50.832;5.590;2023-01-10T03:22:10;11.35;;;2.63;;
29848;SDS011;16728;50.832;5.590;2023-01-10T03:25:15;19.33;;;3.95;;
29848;SDS011;16728;50.832;5.590;2023-01-10T03:28:31;13.60;;;2.70;;
29848;SDS011;16728;50.832;5.590;2023-01-10T03:31:53;10.05;;;3.17;;
29848;SDS011;16728;50.832;5.590;2023-01-10T03:35:00;15.18;;;3.90;;
29848;SDS011;16728;50.832;5.590;2023-01-10T03:38:08;14.23;;;2.95;;
29848;SDS011;16728;50.832;5.590;2023-01-10T03:44:30;12.75;;;2.92;;
29848;SDS011;16728;50.832;5.590;2023-01-10T03:47:46;10.60;;;2.65;;
29848;SDS011;16728;50.832;5.590;2023-01-10T03:50:52;17.00;;;2.83;;
29848;SDS011;16728;50.832;5.590;2023-01-10T03:53:54;16.40;;;3.15;;
29848;SDS011;16728;50.832;5.590;2023-01-10T03:57:01;12.85;;;2.75;;
29848;SDS011;16728;50.832;5.590;2023-01-10T04:00:03;17.90;;;2.88;;
29848;SDS011;16728;50.832;5.590;2023-01-10T04:03:05;12.32;;;3.22;;
29848;SDS011;16728;50.832;5.590;2023-01-10T04:06:10;18.90;;;3.42;;
29848;SDS011;16728;50.832;5.590;2023-01-10T04:09:11;19.13;;;3.53;;
29848;SDS011;16728;50.832;5.590;2023-01-10T04:12:14;18.67;;;3.60;;
29848;SDS011;16728;50.832;5.590;2023-01-10T04:15:16;23.10;;;4.75;;
29848;SDS011;16728;50.832;5.590;2023-01-10T04:18:18;20.83;;;4.30;;
29848;SDS011;16728;50.832;5.590;2023-01-10T04:21:20;18.95;;;4.15;;
29848;SDS011;16728;50.832;5.590;2023-01-10T04:24:22;17.17;;;3.35;;
29848;SDS011;16728;50.832;5.590;2023-01-10T04:27:24;19.23;;;3.80;;
29848;SDS011;16728;50.832;5.590;2023-01-10T04:30:26;19.40;;;3.65;;
29848;SDS011;16728;50.832;5.590;2023-01-10T04:33:28;22.60;;;3.35;;
29848;SDS011;16728;50.832;5.590;2023-01-10T04:36:30;16.90;;;3.97;;
29848;SDS011;16728;50.832;5.590;2023-01-10T04:39:32;16.08;;;3.58;;
29848;SDS011;16728;50.832;5.590;2023-01-10T04:42:34;20.92;;;4.47;;
29848;SDS011;16728;50.832;5.590;2023-01-10T04:45:36;13.88;;;3.20;;
29848;SDS011;16728;50.832;5.590;2023-01-10T04:48:38;15.10;;;3.72;;
29848;SDS011;16728;50.832;5.590;2023-01-10T04:51:40;16.33;;;3.45;;
29848;SDS011;16728;50.832;5.590;2023-01-10T04:54:42;18.70;;;3.33;;
29848;SDS011;16728;50.832;5.590;2023-01-10T04:57:44;15.07;;;2.95;;
29848;SDS011;16728;50.832;5.590;2023-01-10T05:00:46;25.88;;;3.78;;
29848;SDS011;16728;50.832;5.590;2023-01-10T05:03:49;18.92;;;3.50;;
29848;SDS011;16728;50.832;5.590;2023-01-10T05:06:52;10.88;;;2.95;;
29848;SDS011;16728;50.832;5.590;2023-01-10T05:09:54;17.42;;;3.42;;
29848;SDS011;16728;50.832;5.590;2023-01-10T05:12:56;20.70;;;4.10;;
29848;SDS011;16728;50.832;5.590;2023-01-10T05:15:58;21.63;;;3.75;;
29848;SDS011;16728;50.832;5.590;2023-01-10T05:19:03;22.17;;;3.92;;
29848;SDS011;16728;50.832;5.590;2023-01-10T05:22:05;18.63;;;3.22;;
29848;SDS011;16728;50.832;5.590;2023-01-10T05:25:07;15.65;;;3.50;;
29848;SDS011;16728;50.832;5.590;2023-01-10T05:28:30;19.60;;;3.92;;
29848;SDS011;16728;50.832;5.590;2023-01-10T05:32:02;20.85;;;4.38;;
29848;SDS011;16728;50.832;5.590;2023-01-10T05:35:04;18.95;;;2.88;;
29848;SDS011;16728;50.832;5.590;2023-01-10T05:38:15;22.35;;;3.85;;
29848;SDS011;16728;50.832;5.590;2023-01-10T05:41:18;25.13;;;4.32;;
29848;SDS011;16728;50.832;5.590;2023-01-10T05:44:20;17.23;;;3.77;;
29848;SDS011;16728;50.832;5.590;2023-01-10T05:47:22;22.60;;;3.65;;
29848;SDS011;16728;50.832;5.590;2023-01-10T05:50:25;15.70;;;3.58;;
29848;SDS011;16728;50.832;5.590;2023-01-10T05:53:27;17.02;;;3.45;;
29848;SDS011;16728;50.832;5.590;2023-01-10T05:56:29;15.57;;;3.25;;
29848;SDS011;16728;50.832;5.590;2023-01-10T05:59:31;16.35;;;3.10;;
29848;SDS011;16728;50.832;5.590;2023-01-10T06:02:33;12.45;;;3.25;;
29848;SDS011;16728;50.832;5.590;2023-01-10T06:05:35;16.75;;;3.55;;
29848;SDS011;16728;50.832;5.590;2023-01-10T06:08:37;20.15;;;3.78;;
29848;SDS011;16728;50.832;5.590;2023-01-10T06:11:40;23.27;;;4.18;;
29848;SDS011;16728;50.832;5.590;2023-01-10T06:14:42;23.83;;;3.53;;
29848;SDS011;16728;50.832;5.590;2023-01-10T06:17:45;21.77;;;3.80;;
29848;SDS011;16728;50.832;5.590;2023-01-10T06:20:47;22.15;;;3.33;;
29848;SDS011;16728;50.832;5.590;2023-01-10T06:23:49;19.70;;;4.65;;
29848;SDS011;16728;50.832;5.590;2023-01-10T06:26:51;18.85;;;3.13;;
29848;SDS011;16728;50.832;5.590;2023-01-10T06:29:53;15.75;;;3.28;;
29848;SDS011;16728;50.832;5.590;2023-01-10T06:32:59;21.63;;;4.32;;
29848;SDS011;16728;50.832;5.590;2023-01-10T06:36:07;17.85;;;2.97;;
29848;SDS011;16728;50.832;5.590;2023-01-10T06:39:10;15.55;;;4.28;;
29848;SDS011;16728;50.832;5.590;2023-01-10T06:42:11;19.00;;;3.20;;
29848;SDS011;16728;50.832;5.590;2023-01-10T06:45:13;15.40;;;3.08;;
29848;SDS011;16728;50.832;5.590;2023-01-10T06:48:15;25.23;;;4.40;;
29848;SDS011;16728;50.832;5.590;2023-01-10T06:51:18;15.35;;;3.25;;
29848;SDS011;16728;50.832;5.590;2023-01-10T06:54:20;17.30;;;3.95;;
29848;SDS011;16728;50.832;5.590;2023-01-10T06:57:22;14.57;;;2.90;;
29848;SDS011;16728;50.832;5.590;2023-01-10T07:00:24;14.18;;;2.67;;
29848;SDS011;16728;50.832;5.590;2023-01-10T07:03:28;13.65;;;3.72;;
29848;SDS011;16728;50.832;5.590;2023-01-10T07:06:30;12.67;;;3.23;;
29848;SDS011;16728;50.832;5.590;2023-01-10T07:09:37;14.40;;;3.10;;
29848;SDS011;16728;50.832;5.590;2023-01-10T07:12:39;24.33;;;4.05;;
29848;SDS011;16728;50.832;5.590;2023-01-10T07:15:41;20.83;;;3.83;;
29848;SDS011;16728;50.832;5.590;2023-01-10T07:18:43;12.93;;;2.80;;
29848;SDS011;16728;50.832;5.590;2023-01-10T07:21:45;19.67;;;3.58;;
29848;SDS011;16728;50.832;5.590;2023-01-10T07:24:47;25.83;;;3.70;;
29848;SDS011;16728;50.832;5.590;2023-01-10T07:27:49;17.27;;;3.88;;
29848;SDS011;16728;50.832;5.590;2023-01-10T07:30:51;14.45;;;3.80;;
29848;SDS011;16728;50.832;5.590;2023-01-10T07:33:53;17.58;;;3.45;;
29848;SDS011;16728;50.832;5.590;2023-01-10T07:36:55;22.08;;;3.03;;
29848;SDS011;16728;50.832;5.590;2023-01-10T07:39:57;18.95;;;3.55;;
29848;SDS011;16728;50.832;5.590;2023-01-10T07:42:59;22.58;;;4.13;;
29848;SDS011;16728;50.832;5.590;2023-01-10T07:46:03;16.05;;;3.08;;
29848;SDS011;16728;50.832;5.590;2023-01-10T07:49:09;18.80;;;3.55;;
29848;SDS011;16728;50.832;5.590;2023-01-10T07:52:17;17.98;;;5.00;;
29848;SDS011;16728;50.832;5.590;2023-01-10T07:55:28;19.35;;;3.95;;
29848;SDS011;16728;50.832;5.590;2023-01-10T07:58:30;20.15;;;4.15;;
29848;SDS011;16728;50.832;5.590;2023-01-10T08:01:33;17.60;;;3.50;;
29848;SDS011;16728;50.832;5.590;2023-01-10T08:04:35;18.83;;;4.55;;
29848;SDS011;16728;50.832;5.590;2023-01-10T08:07:38;19.75;;;4.43;;
29848;SDS011;16728;50.832;5.590;2023-01-10T08:10:40;27.97;;;5.67;;
29848;SDS011;16728;50.832;5.590;2023-01-10T08:13:42;16.63;;;4.95;;
29848;SDS011;16728;50.832;5.590;2023-01-10T08:16:44;27.75;;;4.95;;
29848;SDS011;16728;50.832;5.590;2023-01-10T08:19:49;17.95;;;4.32;;
29848;SDS011;16728;50.832;5.590;2023-01-10T08:22:51;17.83;;;4.40;;
29848;SDS011;16728;50.832;5.590;2023-01-10T08:25:56;17.23;;;3.50;;
29848;SDS011;16728;50.832;5.590;2023-01-10T08:28:59;17.75;;;4.45;;
29848;SDS011;16728;50.832;5.590;2023-01-10T08:32:01;27.33;;;4.40;;
29848;SDS011;16728;50.832;5.590;2023-01-10T08:35:04;15.65;;;4.88;;
29848;SDS011;16728;50.832;5.590;2023-01-10T08:38:06;22.92;;;7.78;;
29848;SDS011;16728;50.832;5.590;2023-01-10T08:41:10;19.95;;;5.28;;
29848;SDS011;16728;50.832;5.590;2023-01-10T08:44:12;20.10;;;4.90;;
29848;SDS011;16728;50.832;5.590;2023-01-10T08:47:15;14.27;;;4.18;;
29848;SDS011;16728;50.832;5.590;2023-01-10T08:50:17;18.20;;;4.15;;
29848;SDS011;16728;50.832;5.590;2023-01-10T08:53:19;18.90;;;3.63;;
29848;SDS011;16728;50.832;5.590;2023-01-10T08:56:21;17.58;;;4.13;;
29848;SDS011;16728;50.832;5.590;2023-01-10T08:59:23;16.80;;;3.47;;
29848;SDS011;16728;50.832;5.590;2023-01-10T09:02:26;16.23;;;3.88;;
29848;SDS011;16728;50.832;5.590;2023-01-10T09:05:29;17.98;;;4.25;;
29848;SDS011;16728;50.832;5.590;2023-01-10T09:08:31;22.35;;;7.18;;
29848;SDS011;16728;50.832;5.590;2023-01-10T09:11:33;16.55;;;5.40;;
29848;SDS011;16728;50.832;5.590;2023-01-10T09:14:35;17.35;;;4.47;;
29848;SDS011;16728;50.832;5.590;2023-01-10T09:17:36;20.00;;;4.18;;
29848;SDS011;16728;50.832;5.590;2023-01-10T09:20:39;17.60;;;4.25;;
29848;SDS011;16728;50.832;5.590;2023-01-10T09:23:42;15.80;;;4.38;;
29848;SDS011;16728;50.832;5.590;2023-01-10T09:26:44;20.75;;;4.97;;
29848;SDS011;16728;50.832;5.590;2023-01-10T09:29:46;18.17;;;4.63;;
29848;SDS011;16728;50.832;5.590;2023-01-10T09:32:49;24.42;;;5.18;;
29848;SDS011;16728;50.832;5.590;2023-01-10T09:35:55;21.15;;;5.10;;
29848;SDS011;16728;50.832;5.590;2023-01-10T09:38:58;15.23;;;4.32;;
29848;SDS011;16728;50.832;5.590;2023-01-10T09:45:15;19.27;;;4.10;;
29848;SDS011;16728;50.832;5.590;2023-01-10T09:51:45;13.10;;;4.97;;
29848;SDS011;16728;50.832;5.590;2023-01-10T09:54:50;19.25;;;4.35;;
29848;SDS011;16728;50.832;5.590;2023-01-10T09:57:55;15.07;;;3.90;;
29848;SDS011;16728;50.832;5.590;2023-01-10T10:01:01;17.48;;;3.97;;
29848;SDS011;16728;50.832;5.590;2023-01-10T10:07:28;19.30;;;5.18;;
29848;SDS011;16728;50.832;5.590;2023-01-10T10:10:40;19.55;;;4.60;;
29848;SDS011;16728;50.832;5.590;2023-01-10T10:17:40;15.05;;;3.88;;
29848;SDS011;16728;50.832;5.590;2023-01-10T10:20:46;21.23;;;4.13;;
29848;SDS011;16728;50.832;5.590;2023-01-10T10:27:34;16.50;;;3.83;;
29848;SDS011;16728;50.832;5.590;2023-01-10T10:34:29;26.13;;;4.22;;
29848;SDS011;16728;50.832;5.590;2023-01-10T10:37:49;14.52;;;3.22;;
29848;SDS011;16728;50.832;5.590;2023-01-10T10:40:53;15.35;;;3.70;;
29848;SDS011;16728;50.832;5.590;2023-01-10T10:47:08;17.25;;;3.40;;
29848;SDS011;16728;50.832;5.590;2023-01-10T10:50:26;13.60;;;3.45;;
29848;SDS011;16728;50.832;5.590;2023-01-10T10:53:33;16.65;;;3.92;;
29848;SDS011;16728;50.832;5.590;2023-01-10T10:56:35;16.35;;;3.83;;
29848;SDS011;16728;50.832;5.590;2023-01-10T10:59:37;10.52;;;3.30;;
29848;SDS011;16728;50.832;5.590;2023-01-10T11:02:44;19.08;;;3.78;;
29848;SDS011;16728;50.832;5.590;2023-01-10T11:05:50;10.90;;;3.42;;
29848;SDS011;16728;50.832;5.590;2023-01-10T11:08:54;12.98;;;4.07;;
29848;SDS011;16728;50.832;5.590;2023-01-10T11:11:58;18.45;;;3.72;;
29848;SDS011;16728;50.832;5.590;2023-01-10T11:15:00;15.10;;;3.13;;
29848;SDS011;16728;50.832;5.590;2023-01-10T11:18:08;19.92;;;3.83;;
29848;SDS011;16728;50.832;5.590;2023-01-10T11:21:17;18.70;;;3.75;;
29848;SDS011;16728;50.832;5.590;2023-01-10T11:27:36;13.02;;;3.88;;
29848;SDS011;16728;50.832;5.590;2023-01-10T11:30:55;21.38;;;3.67;;
29848;SDS011;16728;50.832;5.590;2023-01-10T11:33:57;15.73;;;3.73;;
29848;SDS011;16728;50.832;5.590;2023-01-10T11:37:02;17.63;;;3.95;;
29848;SDS011;16728;50.832;5.590;2023-01-10T11:40:24;18.60;;;3.72;;
29848;SDS011;16728;50.832;5.590;2023-01-10T11:43:31;23.25;;;6.35;;
29848;SDS011;16728;50.832;5.590;2023-01-10T11:46:34;19.60;;;4.88;;
29848;SDS011;16728;50.832;5.590;2023-01-10T11:49:37;21.77;;;4.50;;
29848;SDS011;16728;50.832;5.590;2023-01-10T11:52:42;17.13;;;3.75;;
29848;SDS011;16728;50.832;5.590;2023-01-10T11:55:46;22.35;;;4.13;;
29848;SDS011;16728;50.832;5.590;2023-01-10T11:58:48;20.65;;;3.53;;
29848;SDS011;16728;50.832;5.590;2023-01-10T12:02:08;16.40;;;3.20;;
29848;SDS011;16728;50.832;5.590;2023-01-10T12:05:21;15.43;;;3.80;;
29848;SDS011;16728;50.832;5.590;2023-01-10T12:08:25;16.75;;;4.15;;
29848;SDS011;16728;50.832;5.590;2023-01-10T12:11:30;22.98;;;4.60;;
29848;SDS011;16728;50.832;5.590;2023-01-10T12:14:33;16.05;;;4.00;;
29848;SDS011;16728;50.832;5.590;2023-01-10T12:17:36;16.50;;;3.95;;
29848;SDS011;16728;50.832;5.590;2023-01-10T12:23:47;15.77;;;3.47;;
29848;SDS011;16728;50.832;5.590;2023-01-10T12:26:51;16.17;;;4.32;;
29848;SDS011;16728;50.832;5.590;2023-01-10T12:43:18;17.88;;;3.25;;
29848;SDS011;16728;50.832;5.590;2023-01-10T12:50:20;17.73;;;3.50;;
29848;SDS011;16728;50.832;5.590;2023-01-10T12:56:44;14.63;;;3.47;;
29848;SDS011;16728;50.832;5.590;2023-01-10T12:59:48;14.50;;;3.45;;
29848;SDS011;16728;50.832;5.590;2023-01-10T13:02:52;16.27;;;3.87;;
29848;SDS011;16728;50.832;5.590;2023-01-10T13:05:57;16.35;;;4.72;;
29848;SDS011;16728;50.832;5.590;2023-01-10T13:09:02;17.27;;;4.30;;
29848;SDS011;16728;50.832;5.590;2023-01-10T13:12:20;15.15;;;3.70;;
29848;SDS011;16728;50.832;5.590;2023-01-10T13:15:26;21.23;;;3.92;;
29848;SDS011;16728;50.832;5.590;2023-01-10T13:18:44;16.30;;;3.72;;
29848;SDS011;16728;50.832;5.590;2023-01-10T13:22:11;14.98;;;3.03;;
29848;SDS011;16728;50.832;5.590;2023-01-10T13:25:29;15.55;;;3.78;;
29848;SDS011;16728;50.832;5.590;2023-01-10T13:28:52;16.10;;;4.28;;
29848;SDS011;16728;50.832;5.590;2023-01-10T13:31:59;11.57;;;4.03;;
29848;SDS011;16728;50.832;5.590;2023-01-10T13:35:15;13.60;;;3.00;;
29848;SDS011;16728;50.832;5.590;2023-01-10T13:38:20;14.00;;;3.45;;
29848;SDS011;16728;50.832;5.590;2023-01-10T13:42:08;16.33;;;3.13;;
29848;SDS011;16728;50.832;5.590;2023-01-10T13:48:27;15.00;;;4.13;;
29848;SDS011;16728;50.832;5.590;2023-01-10T13:51:29;9.85;;;2.90;;
29848;SDS011;16728;50.832;5.590;2023-01-10T13:54:32;15.50;;;3.17;;
29848;SDS011;16728;50.832;5.590;2023-01-10T13:57:53;16.15;;;4.18;;
29848;SDS011;16728;50.832;5.590;2023-01-10T14:00:59;13.20;;;3.90;;
29848;SDS011;16728;50.832;5.590;2023-01-10T14:04:30;14.60;;;3.20;;
29848;SDS011;16728;50.832;5.590;2023-01-10T14:07:49;13.32;;;3.45;;
29848;SDS011;16728;50.832;5.590;2023-01-10T14:11:08;15.90;;;3.92;;
29848;SDS011;16728;50.832;5.590;2023-01-10T14:14:17;10.13;;;2.50;;
29848;SDS011;16728;50.832;5.590;2023-01-10T14:17:29;14.18;;;3.35;;
29848;SDS011;16728;50.832;5.590;2023-01-10T14:20:34;13.48;;;3.10;;
29848;SDS011;16728;50.832;5.590;2023-01-10T14:23:40;13.32;;;2.38;;
29848;SDS011;16728;50.832;5.590;2023-01-10T14:26:48;12.40;;;2.70;;
29848;SDS011;16728;50.832;5.590;2023-01-10T14:29:57;10.98;;;2.90;;
29848;SDS011;16728;50.832;5.590;2023-01-10T14:33:21;12.48;;;2.55;;
29848;SDS011;16728;50.832;5.590;2023-01-10T14:36:25;9.15;;;2.42;;
29848;SDS011;16728;50.832;5.590;2023-01-10T14:39:30;8.57;;;2.05;;
29848;SDS011;16728;50.832;5.590;2023-01-10T14:42:33;11.45;;;2.70;;
29848;SDS011;16728;50.832;5.590;2023-01-10T14:45:57;8.85;;;2.13;;
29848;SDS011;16728;50.832;5.590;2023-01-10T14:49:15;7.88;;;2.58;;
29848;SDS011;16728;50.832;5.590;2023-01-10T14:52:35;7.10;;;2.33;;
29848;SDS011;16728;50.832;5.590;2023-01-10T14:55:42;15.13;;;2.80;;
29848;SDS011;16728;50.832;5.590;2023-01-10T14:58:44;11.40;;;2.85;;
29848;SDS011;16728;50.832;5.590;2023-01-10T15:01:46;10.32;;;2.22;;
29848;SDS011;16728;50.832;5.590;2023-01-10T15:11:22;9.85;;;2.60;;
29848;SDS011;16728;50.832;5.590;2023-01-10T15:14:27;11.60;;;2.17;;
29848;SDS011;16728;50.832;5.590;2023-01-10T15:20:32;8.30;;;2.53;;
29848;SDS011;16728;50.832;5.590;2023-01-10T15:23:35;6.22;;;2.05;;
29848;SDS011;16728;50.832;5.590;2023-01-10T15:26:42;6.40;;;1.90;;
29848;SDS011;16728;50.832;5.590;2023-01-10T15:29:44;7.07;;;1.92;;
29848;SDS011;16728;50.832;5.590;2023-01-10T15:32:54;3.25;;;1.33;;
29848;SDS011;16728;50.832;5.590;2023-01-10T15:36:06;7.32;;;1.67;;
29848;SDS011;16728;50.832;5.590;2023-01-10T15:39:21;6.15;;;1.65;;
29848;SDS011;16728;50.832;5.590;2023-01-10T15:42:25;5.97;;;2.58;;
29848;SDS011;16728;50.832;5.590;2023-01-10T15:45:28;10.88;;;3.47;;
29848;SDS011;16728;50.832;5.590;2023-01-10T15:48:39;5.18;;;2.53;;
29848;SDS011;16728;50.832;5.590;2023-01-10T15:51:45;3.60;;;1.73;;
29848;SDS011;16728;50.832;5.590;2023-01-10T15:54:48;6.05;;;2.08;;
29848;SDS011;16728;50.832;5.590;2023-01-10T15:57:50;5.28;;;2.42;;
29848;SDS011;16728;50.832;5.590;2023-01-10T16:00:53;4.90;;;1.42;;
29848;SDS011;16728;50.832;5.590;2023-01-10T16:03:57;5.47;;;2.38;;
29848;SDS011;16728;50.832;5.590;2023-01-10T16:07:11;5.97;;;1.88;;
29848;SDS011;16728;50.832;5.590;2023-01-10T16:10:18;4.88;;;1.38;;
29848;SDS011;16728;50.832;5.590;2023-01-10T16:13:27;2.92;;;1.33;;
29848;SDS011;16728;50.832;5.590;2023-01-10T16:16:33;6.47;;;1.33;;
29848;SDS011;16728;50.832;5.590;2023-01-10T16:19:35;3.67;;;1.55;;
29848;SDS011;16728;50.832;5.590;2023-01-10T16:22:37;2.90;;;1.08;;
29848;SDS011;16728;50.832;5.590;2023-01-10T16:25:39;7.43;;;1.90;;
29848;SDS011;16728;50.832;5.590;2023-01-10T16:28:45;2.85;;;1.38;;
29848;SDS011;16728;50.832;5.590;2023-01-10T16:31:47;4.72;;;1.40;;
29848;SDS011;16728;50.832;5.590;2023-01-10T16:34:50;4.38;;;1.58;;
29848;SDS011;16728;50.832;5.590;2023-01-10T16:37:53;2.13;;;1.00;;
29848;SDS011;16728;50.832;5.590;2023-01-10T16:40:58;2.03;;;1.02;;
29848;SDS011;16728;50.832;5.590;2023-01-10T16:44:21;2.25;;;1.02;;
29848;SDS011;16728;50.832;5.590;2023-01-10T16:47:23;1.48;;;1.05;;
29848;SDS011;16728;50.832;5.590;2023-01-10T16:50:25;2.40;;;0.95;;
29848;SDS011;16728;50.832;5.590;2023-01-10T16:53:27;1.88;;;1.05;;
29848;SDS011;16728;50.832;5.590;2023-01-10T16:56:32;1.23;;;1.00;;
29848;SDS011;16728;50.832;5.590;2023-01-10T16:59:33;1.15;;;0.80;;
29848;SDS011;16728;50.832;5.590;2023-01-10T17:02:36;1.48;;;0.90;;
29848;SDS011;16728;50.832;5.590;2023-01-10T17:05:38;2.15;;;0.95;;
29848;SDS011;16728;50.832;5.590;2023-01-10T17:08:41;2.92;;;1.58;;
29848;SDS011;16728;50.832;5.590;2023-01-10T17:11:44;2.20;;;1.60;;
29848;SDS011;16728;50.832;5.590;2023-01-10T17:19:39;1.00;;;0.90;;
29848;SDS011;16728;50.832;5.590;2023-01-10T17:23:32;1.67;;;1.05;;
29848;SDS011;16728;50.832;5.590;2023-01-10T17:27:36;1.13;;;0.80;;
29848;SDS011;16728;50.832;5.590;2023-01-10T17:30:39;2.13;;;1.02;;
29848;SDS011;16728;50.832;5.590;2023-01-10T17:33:44;0.90;;;0.90;;
29848;SDS011;16728;50.832;5.590;2023-01-10T17:36:46;1.33;;;0.97;;
29848;SDS011;16728;50.832;5.590;2023-01-10T17:39:48;1.90;;;1.20;;
29848;SDS011;16728;50.832;5.590;2023-01-10T17:42:54;2.75;;;0.75;;
29848;SDS011;16728;50.832;5.590;2023-01-10T17:46:13;0.82;;;0.70;;
29848;SDS011;16728;50.832;5.590;2023-01-10T17:49:17;2.03;;;0.85;;
29848;SDS011;16728;50.832;5.590;2023-01-10T17:52:23;3.33;;;1.73;;
29848;SDS011;16728;50.832;5.590;2023-01-10T17:55:25;0.85;;;0.82;;
29848;SDS011;16728;50.832;5.590;2023-01-10T17:58:27;0.80;;;0.80;;
29848;SDS011;16728;50.832;5.590;2023-01-10T18:01:34;1.35;;;0.80;;
29848;SDS011;16728;50.832;5.590;2023-01-10T18:04:39;1.13;;;0.90;;
29848;SDS011;16728;50.832;5.590;2023-01-10T18:07:42;0.88;;;0.88;;
29848;SDS011;16728;50.832;5.590;2023-01-10T18:10:59;3.90;;;0.80;;
29848;SDS011;16728;50.832;5.590;2023-01-10T18:14:19;2.80;;;0.88;;
29848;SDS011;16728;50.832;5.590;2023-01-10T18:18:24;1.50;;;0.80;;
29848;SDS011;16728;50.832;5.590;2023-01-10T18:22:37;1.80;;;0.80;;
29848;SDS011;16728;50.832;5.590;2023-01-10T18:26:02;4.20;;;1.45;;
29848;SDS011;16728;50.832;5.590;2023-01-10T18:29:12;1.70;;;1.25;;
29848;SDS011;16728;50.832;5.590;2023-01-10T18:32:17;1.88;;;1.35;;
29848;SDS011;16728;50.832;5.590;2023-01-10T18:36:38;0.95;;;0.90;;
29848;SDS011;16728;50.832;5.590;2023-01-10T18:44:43;1.05;;;0.88;;
29848;SDS011;16728;50.832;5.590;2023-01-10T18:47:52;0.75;;;0.60;;
29848;SDS011;16728;50.832;5.590;2023-01-10T18:51:05;2.85;;;0.70;;
29848;SDS011;16728;50.832;5.590;2023-01-10T18:54:16;1.13;;;0.70;;
29848;SDS011;16728;50.832;5.590;2023-01-10T18:57:20;1.60;;;0.80;;
29848;SDS011;16728;50.832;5.590;2023-01-10T19:00:30;0.77;;;0.70;;
29848;SDS011;16728;50.832;5.590;2023-01-10T19:03:45;0.50;;;0.50;;
29848;SDS011;16728;50.832;5.590;2023-01-10T19:06:58;0.57;;;0.57;;
29848;SDS011;16728;50.832;5.590;2023-01-10T19:10:08;0.73;;;0.57;;
29848;SDS011;16728;50.832;5.590;2023-01-10T19:13:11;0.63;;;0.63;;
29848;SDS011;16728;50.832;5.590;2023-01-10T19:16:24;5.40;;;1.27;;
29848;SDS011;16728;50.832;5.590;2023-01-10T19:19:30;1.08;;;0.98;;
29848;SDS011;16728;50.832;5.590;2023-01-10T19:22:32;1.90;;;1.35;;
29848;SDS011;16728;50.832;5.590;2023-01-10T19:25:34;1.70;;;1.30;;
29848;SDS011;16728;50.832;5.590;2023-01-10T19:31:40;1.42;;;0.80;;
29848;SDS011;16728;50.832;5.590;2023-01-10T19:34:42;0.70;;;0.70;;
29848;SDS011;16728;50.832;5.590;2023-01-10T19:37:46;0.70;;;0.70;;
29848;SDS011;16728;50.832;5.590;2023-01-10T19:40:50;1.02;;;0.75;;
29848;SDS011;16728;50.832;5.590;2023-01-10T19:43:56;0.80;;;0.70;;
29848;SDS011;16728;50.832;5.590;2023-01-10T19:47:14;1.17;;;0.90;;
29848;SDS011;16728;50.832;5.590;2023-01-10T19:50:16;3.58;;;1.73;;
29848;SDS011;16728;50.832;5.590;2023-01-10T19:53:20;2.63;;;1.10;;
29848;SDS011;16728;50.832;5.590;2023-01-10T19:56:25;1.70;;;0.82;;
29848;SDS011;16728;50.832;5.590;2023-01-10T19:59:30;1.20;;;1.10;;
29848;SDS011;16728;50.832;5.590;2023-01-10T20:02:36;3.75;;;1.13;;
29848;SDS011;16728;50.832;5.590;2023-01-10T20:05:38;2.08;;;1.10;;
29848;SDS011;16728;50.832;5.590;2023-01-10T20:08:40;1.50;;;1.05;;
29848;SDS011;16728;50.832;5.590;2023-01-10T20:11:42;1.98;;;0.98;;
29848;SDS011;16728;50.832;5.590;2023-01-10T20:14:47;1.02;;;0.93;;
29848;SDS011;16728;50.832;5.590;2023-01-10T20:17:54;1.25;;;0.80;;
29848;SDS011;16728;50.832;5.590;2023-01-10T20:20:56;1.58;;;1.00;;
29848;SDS011;16728;50.832;5.590;2023-01-10T20:23:59;0.73;;;0.70;;
29848;SDS011;16728;50.832;5.590;2023-01-10T20:27:01;1.20;;;1.00;;
29848;SDS011;16728;50.832;5.590;2023-01-10T20:30:09;1.20;;;1.05;;
29848;SDS011;16728;50.832;5.590;2023-01-10T20:33:14;1.55;;;1.05;;
29848;SDS011;16728;50.832;5.590;2023-01-10T20:36:17;1.73;;;0.88;;